sensor_id;sensor_type;location;lat;lon;timestamp;pressure;altitude;pressure_sealevel;temperature
68440;BMP180;55421;51.600;5.718;2022-07-06T00:00:14;83216.40;;;14.60
68440;BMP180;55421;51.600;5.718;2022-07-06T00:03:00;83832.40;;;14.60
68440;BMP180;55421;51.600;5.718;2022-07-06T00:05:27;84398.40;;;14.60
68440;BMP180;55421;51.600;5.718;2022-07-06T00:07:53;84184.60;;;14.50
68440;BMP180;55421;51.600;5.718;2022-07-06T00:10:20;83301.00;;;14.38
68440;BMP180;55421;51.600;5.718;2022-07-06T00:12:46;82915.40;;;14.30
68440;BMP180;55421;51.600;5.718;2022-07-06T00:15:12;83770.60;;;14.30
68440;BMP180;55421;51.600;5.718;2022-07-06T00:17:39;82305.60;;;14.30
68440;BMP180;55421;51.600;5.718;2022-07-06T00:20:06;83229.60;;;14.30
68440;BMP180;55421;51.600;5.718;2022-07-06T00:22:32;84409.20;;;14.30
68440;BMP180;55421;51.600;5.718;2022-07-06T00:24:59;83604.20;;;14.32
68440;BMP180;55421;51.600;5.718;2022-07-06T00:27:25;82938.80;;;14.30
68440;BMP180;55421;51.600;5.718;2022-07-06T00:29:51;83368.00;;;14.28
68440;BMP180;55421;51.600;5.718;2022-07-06T00:32:18;83401.40;;;14.20
68440;BMP180;55421;51.600;5.718;2022-07-06T00:34:45;82895.80;;;14.20
68440;BMP180;55421;51.600;5.718;2022-07-06T00:37:11;83561.00;;;14.20
68440;BMP180;55421;51.600;5.718;2022-07-06T00:39:37;84262.80;;;14.10
68440;BMP180;55421;51.600;5.718;2022-07-06T00:42:04;83314.60;;;14.00
68440;BMP180;55421;51.600;5.718;2022-07-06T00:44:30;84048.00;;;14.00
68440;BMP180;55421;51.600;5.718;2022-07-06T00:46:59;84291.80;;;14.00
68440;BMP180;55421;51.600;5.718;2022-07-06T00:49:26;83634.40;;;14.00
68440;BMP180;55421;51.600;5.718;2022-07-06T00:52:11;82756.00;;;14.00
68440;BMP180;55421;51.600;5.718;2022-07-06T00:54:41;83714.40;;;14.00
68440;BMP180;55421;51.600;5.718;2022-07-06T00:57:09;83323.80;;;13.96
68440;BMP180;55421;51.600;5.718;2022-07-06T00:59:35;83343.00;;;13.96
68440;BMP180;55421;51.600;5.718;2022-07-06T01:02:03;84185.00;;;13.90
68440;BMP180;55421;51.600;5.718;2022-07-06T01:04:29;81894.60;;;13.80
68440;BMP180;55421;51.600;5.718;2022-07-06T01:06:57;83467.40;;;13.80
68440;BMP180;55421;51.600;5.718;2022-07-06T01:09:23;83423.60;;;13.72
68440;BMP180;55421;51.600;5.718;2022-07-06T01:11:52;82648.20;;;13.70
68440;BMP180;55421;51.600;5.718;2022-07-06T01:14:20;83772.40;;;13.70
68440;BMP180;55421;51.600;5.718;2022-07-06T01:16:47;83544.20;;;13.62
68440;BMP180;55421;51.600;5.718;2022-07-06T01:19:14;83657.00;;;13.60
68440;BMP180;55421;51.600;5.718;2022-07-06T01:21:40;83954.40;;;13.60
68440;BMP180;55421;51.600;5.718;2022-07-06T01:24:07;83681.00;;;13.60
68440;BMP180;55421;51.600;5.718;2022-07-06T01:26:33;83426.20;;;13.60
68440;BMP180;55421;51.600;5.718;2022-07-06T01:29:00;84257.60;;;13.62
68440;BMP180;55421;51.600;5.718;2022-07-06T01:31:27;84161.80;;;13.60
68440;BMP180;55421;51.600;5.718;2022-07-06T01:33:56;84051.60;;;13.60
68440;BMP180;55421;51.600;5.718;2022-07-06T01:36:23;82587.20;;;13.56
68440;BMP180;55421;51.600;5.718;2022-07-06T01:38:55;83376.60;;;13.50
68440;BMP180;55421;51.600;5.718;2022-07-06T01:41:25;83262.60;;;13.50
68440;BMP180;55421;51.600;5.718;2022-07-06T01:43:52;82753.40;;;13.40
68440;BMP180;55421;51.600;5.718;2022-07-06T01:46:20;82731.40;;;13.36
68440;BMP180;55421;51.600;5.718;2022-07-06T01:48:47;84038.00;;;13.20
68440;BMP180;55421;51.600;5.718;2022-07-06T01:51:14;82253.40;;;13.12
68440;BMP180;55421;51.600;5.718;2022-07-06T01:53:40;82635.80;;;13.10
68440;BMP180;55421;51.600;5.718;2022-07-06T01:56:08;83492.60;;;13.10
68440;BMP180;55421;51.600;5.718;2022-07-06T01:58:35;83411.00;;;13.20
68440;BMP180;55421;51.600;5.718;2022-07-06T02:01:11;83874.80;;;13.22
68440;BMP180;55421;51.600;5.718;2022-07-06T02:03:38;83783.60;;;13.26
68440;BMP180;55421;51.600;5.718;2022-07-06T02:06:06;83646.40;;;13.20
68440;BMP180;55421;51.600;5.718;2022-07-06T02:08:34;83259.60;;;13.20
68440;BMP180;55421;51.600;5.718;2022-07-06T02:11:03;82489.20;;;13.20
68440;BMP180;55421;51.600;5.718;2022-07-06T02:13:29;82510.60;;;13.20
68440;BMP180;55421;51.600;5.718;2022-07-06T02:15:55;82597.00;;;13.20
68440;BMP180;55421;51.600;5.718;2022-07-06T02:18:22;82029.00;;;13.10
68440;BMP180;55421;51.600;5.718;2022-07-06T02:20:48;81508.20;;;13.10
68440;BMP180;55421;51.600;5.718;2022-07-06T02:23:15;82524.80;;;13.10
68440;BMP180;55421;51.600;5.718;2022-07-06T02:25:41;82423.80;;;13.08
68440;BMP180;55421;51.600;5.718;2022-07-06T02:28:08;81924.20;;;13.10
68440;BMP180;55421;51.600;5.718;2022-07-06T02:30:34;82023.80;;;13.10
68440;BMP180;55421;51.600;5.718;2022-07-06T02:33:01;81724.80;;;13.10
68440;BMP180;55421;51.600;5.718;2022-07-06T02:35:28;81739.20;;;13.10
68440;BMP180;55421;51.600;5.718;2022-07-06T02:37:54;81529.40;;;13.06
68440;BMP180;55421;51.600;5.718;2022-07-06T02:40:21;81972.40;;;13.00
68440;BMP180;55421;51.600;5.718;2022-07-06T02:42:48;82099.00;;;13.00
68440;BMP180;55421;51.600;5.718;2022-07-06T02:45:14;81635.40;;;12.92
68440;BMP180;55421;51.600;5.718;2022-07-06T02:47:40;82248.20;;;12.90
68440;BMP180;55421;51.600;5.718;2022-07-06T02:50:07;82213.00;;;12.90
68440;BMP180;55421;51.600;5.718;2022-07-06T02:52:34;82667.20;;;12.90
68440;BMP180;55421;51.600;5.718;2022-07-06T02:55:00;84027.00;;;12.88
68440;BMP180;55421;51.600;5.718;2022-07-06T02:57:27;83544.40;;;12.82
68440;BMP180;55421;51.600;5.718;2022-07-06T02:59:54;83814.40;;;12.80
68440;BMP180;55421;51.600;5.718;2022-07-06T03:02:20;82664.40;;;12.80
68440;BMP180;55421;51.600;5.718;2022-07-06T03:04:47;82989.60;;;12.70
68440;BMP180;55421;51.600;5.718;2022-07-06T03:07:13;81986.40;;;12.64
68440;BMP180;55421;51.600;5.718;2022-07-06T03:09:39;82937.40;;;12.60
68440;BMP180;55421;51.600;5.718;2022-07-06T03:12:07;83643.80;;;12.50
68440;BMP180;55421;51.600;5.718;2022-07-06T03:14:33;83244.40;;;12.50
68440;BMP180;55421;51.600;5.718;2022-07-06T03:17:00;82528.60;;;12.50
68440;BMP180;55421;51.600;5.718;2022-07-06T03:19:26;82506.40;;;12.50
68440;BMP180;55421;51.600;5.718;2022-07-06T03:21:53;83029.00;;;12.50
68440;BMP180;55421;51.600;5.718;2022-07-06T03:24:19;82011.00;;;12.60
68440;BMP180;55421;51.600;5.718;2022-07-06T03:26:45;82578.80;;;12.60
68440;BMP180;55421;51.600;5.718;2022-07-06T03:29:12;81621.00;;;12.60
68440;BMP180;55421;51.600;5.718;2022-07-06T03:31:38;81709.80;;;12.60
68440;BMP180;55421;51.600;5.718;2022-07-06T03:34:05;81598.00;;;12.60
68440;BMP180;55421;51.600;5.718;2022-07-06T03:36:32;82443.80;;;12.70
68440;BMP180;55421;51.600;5.718;2022-07-06T03:38:59;82385.80;;;12.80
68440;BMP180;55421;51.600;5.718;2022-07-06T03:41:25;82985.20;;;12.80
68440;BMP180;55421;51.600;5.718;2022-07-06T03:43:51;81457.80;;;12.80
68440;BMP180;55421;51.600;5.718;2022-07-06T03:46:18;82924.80;;;12.90
68440;BMP180;55421;51.600;5.718;2022-07-06T03:48:44;82597.40;;;12.90
68440;BMP180;55421;51.600;5.718;2022-07-06T03:51:11;80992.40;;;12.92
68440;BMP180;55421;51.600;5.718;2022-07-06T03:53:37;79772.60;;;13.00
68440;BMP180;55421;51.600;5.718;2022-07-06T03:56:04;80125.20;;;13.00
68440;BMP180;55421;51.600;5.718;2022-07-06T03:58:49;78558.40;;;13.10
68440;BMP180;55421;51.600;5.718;2022-07-06T04:01:15;79627.20;;;13.10
68440;BMP180;55421;51.600;5.718;2022-07-06T04:03:42;79613.00;;;13.20
68440;BMP180;55421;51.600;5.718;2022-07-06T04:06:08;80391.60;;;13.30
68440;BMP180;55421;51.600;5.718;2022-07-06T04:08:34;80001.00;;;13.40
68440;BMP180;55421;51.600;5.718;2022-07-06T04:11:01;80028.20;;;13.50
68440;BMP180;55421;51.600;5.718;2022-07-06T04:13:27;80913.20;;;13.70
68440;BMP180;55421;51.600;5.718;2022-07-06T04:15:54;81380.40;;;13.70
68440;BMP180;55421;51.600;5.718;2022-07-06T04:18:20;81297.80;;;13.70
68440;BMP180;55421;51.600;5.718;2022-07-06T04:20:47;81956.00;;;13.70
68440;BMP180;55421;51.600;5.718;2022-07-06T04:23:13;81734.80;;;13.70
68440;BMP180;55421;51.600;5.718;2022-07-06T04:25:40;80775.20;;;13.70
68440;BMP180;55421;51.600;5.718;2022-07-06T04:28:06;81225.80;;;13.70
68440;BMP180;55421;51.600;5.718;2022-07-06T04:30:33;79950.60;;;13.70
68440;BMP180;55421;51.600;5.718;2022-07-06T04:33:00;79534.20;;;13.70
68440;BMP180;55421;51.600;5.718;2022-07-06T04:35:26;80383.00;;;13.70
68440;BMP180;55421;51.600;5.718;2022-07-06T04:37:53;80028.80;;;13.80
68440;BMP180;55421;51.600;5.718;2022-07-06T04:40:19;80167.60;;;13.80
68440;BMP180;55421;51.600;5.718;2022-07-06T04:42:46;81813.60;;;13.80
68440;BMP180;55421;51.600;5.718;2022-07-06T04:45:12;81252.80;;;13.80
68440;BMP180;55421;51.600;5.718;2022-07-06T04:47:39;82185.60;;;13.80
68440;BMP180;55421;51.600;5.718;2022-07-06T04:50:06;80876.60;;;13.80
68440;BMP180;55421;51.600;5.718;2022-07-06T04:52:32;81008.60;;;13.80
68440;BMP180;55421;51.600;5.718;2022-07-06T04:54:59;79813.80;;;13.80
68440;BMP180;55421;51.600;5.718;2022-07-06T04:57:25;79722.20;;;13.80
68440;BMP180;55421;51.600;5.718;2022-07-06T04:59:52;79962.60;;;13.80
68440;BMP180;55421;51.600;5.718;2022-07-06T05:02:18;80271.80;;;13.90
68440;BMP180;55421;51.600;5.718;2022-07-06T05:04:45;78779.40;;;13.90
68440;BMP180;55421;51.600;5.718;2022-07-06T05:07:11;78447.00;;;14.00
68440;BMP180;55421;51.600;5.718;2022-07-06T05:09:38;77362.80;;;14.00
68440;BMP180;55421;51.600;5.718;2022-07-06T05:12:04;78986.20;;;14.00
68440;BMP180;55421;51.600;5.718;2022-07-06T05:14:31;80119.60;;;14.00
68440;BMP180;55421;51.600;5.718;2022-07-06T05:16:57;80958.80;;;14.02
68440;BMP180;55421;51.600;5.718;2022-07-06T05:19:24;80474.60;;;14.10
68440;BMP180;55421;51.600;5.718;2022-07-06T05:21:50;80699.20;;;14.10
68440;BMP180;55421;51.600;5.718;2022-07-06T05:24:17;78991.40;;;14.10
68440;BMP180;55421;51.600;5.718;2022-07-06T05:26:45;79770.20;;;14.20
68440;BMP180;55421;51.600;5.718;2022-07-06T05:29:12;78638.60;;;14.28
68440;BMP180;55421;51.600;5.718;2022-07-06T05:31:38;79644.80;;;14.38
68440;BMP180;55421;51.600;5.718;2022-07-06T05:34:05;79579.80;;;14.40
68440;BMP180;55421;51.600;5.718;2022-07-06T05:36:31;78571.60;;;14.50
68440;BMP180;55421;51.600;5.718;2022-07-06T05:38:58;77872.00;;;14.50
68440;BMP180;55421;51.600;5.718;2022-07-06T05:41:24;77721.00;;;14.60
68440;BMP180;55421;51.600;5.718;2022-07-06T05:43:50;78763.20;;;14.60
68440;BMP180;55421;51.600;5.718;2022-07-06T05:46:17;78681.60;;;14.60
68440;BMP180;55421;51.600;5.718;2022-07-06T05:48:43;77999.80;;;14.60
68440;BMP180;55421;51.600;5.718;2022-07-06T05:51:49;78787.60;;;14.70
68440;BMP180;55421;51.600;5.718;2022-07-06T05:54:15;78760.60;;;14.70
68440;BMP180;55421;51.600;5.718;2022-07-06T05:56:42;79078.80;;;14.80
68440;BMP180;55421;51.600;5.718;2022-07-06T05:59:09;78016.20;;;14.80
68440;BMP180;55421;51.600;5.718;2022-07-06T06:01:36;78093.60;;;14.90
68440;BMP180;55421;51.600;5.718;2022-07-06T06:04:02;77453.20;;;14.90
68440;BMP180;55421;51.600;5.718;2022-07-06T06:06:29;77629.60;;;15.00
68440;BMP180;55421;51.600;5.718;2022-07-06T06:08:57;76639.00;;;15.10
68440;BMP180;55421;51.600;5.718;2022-07-06T06:11:23;76405.80;;;15.10
68440;BMP180;55421;51.600;5.718;2022-07-06T06:13:50;75755.20;;;15.20
68440;BMP180;55421;51.600;5.718;2022-07-06T06:16:16;77247.60;;;15.30
68440;BMP180;55421;51.600;5.718;2022-07-06T06:18:43;76591.80;;;15.42
68440;BMP180;55421;51.600;5.718;2022-07-06T06:21:09;75814.20;;;15.64
68440;BMP180;55421;51.600;5.718;2022-07-06T06:23:36;74560.40;;;15.90
68440;BMP180;55421;51.600;5.718;2022-07-06T06:26:03;75167.40;;;16.00
68440;BMP180;55421;51.600;5.718;2022-07-06T06:28:29;75520.20;;;16.22
68440;BMP180;55421;51.600;5.718;2022-07-06T06:30:56;76647.00;;;16.46
68440;BMP180;55421;51.600;5.718;2022-07-06T06:33:22;77205.00;;;16.64
68440;BMP180;55421;51.600;5.718;2022-07-06T06:35:51;76093.60;;;16.82
68440;BMP180;55421;51.600;5.718;2022-07-06T06:38:20;75700.60;;;16.90
68440;BMP180;55421;51.600;5.718;2022-07-06T06:40:48;77165.20;;;17.04
68440;BMP180;55421;51.600;5.718;2022-07-06T06:43:14;75193.60;;;17.10
68440;BMP180;55421;51.600;5.718;2022-07-06T06:45:41;76014.20;;;17.20
68440;BMP180;55421;51.600;5.718;2022-07-06T06:48:07;77149.20;;;17.30
68440;BMP180;55421;51.600;5.718;2022-07-06T06:50:34;75438.20;;;17.36
68440;BMP180;55421;51.600;5.718;2022-07-06T06:53:02;76907.00;;;17.40
68440;BMP180;55421;51.600;5.718;2022-07-06T06:55:29;76880.60;;;17.50
68440;BMP180;55421;51.600;5.718;2022-07-06T06:57:55;77905.80;;;17.50
68440;BMP180;55421;51.600;5.718;2022-07-06T07:00:22;77601.80;;;17.70
68440;BMP180;55421;51.600;5.718;2022-07-06T07:02:48;77738.00;;;17.70
68440;BMP180;55421;51.600;5.718;2022-07-06T07:05:15;78462.00;;;17.80
68440;BMP180;55421;51.600;5.718;2022-07-06T07:07:41;79717.80;;;17.80
68440;BMP180;55421;51.600;5.718;2022-07-06T07:10:08;78655.00;;;18.00
68440;BMP180;55421;51.600;5.718;2022-07-06T07:12:34;78248.80;;;18.10
68440;BMP180;55421;51.600;5.718;2022-07-06T07:15:01;78950.20;;;18.10
68440;BMP180;55421;51.600;5.718;2022-07-06T07:17:28;76835.40;;;18.10
68440;BMP180;55421;51.600;5.718;2022-07-06T07:19:54;78551.20;;;18.20
68440;BMP180;55421;51.600;5.718;2022-07-06T07:22:23;79285.80;;;18.26
68440;BMP180;55421;51.600;5.718;2022-07-06T07:24:50;79946.00;;;18.30
68440;BMP180;55421;51.600;5.718;2022-07-06T07:27:17;80268.20;;;18.30
68440;BMP180;55421;51.600;5.718;2022-07-06T07:29:43;78977.60;;;18.30
68440;BMP180;55421;51.600;5.718;2022-07-06T07:32:09;79241.00;;;18.30
68440;BMP180;55421;51.600;5.718;2022-07-06T07:34:36;79348.60;;;18.32
68440;BMP180;55421;51.600;5.718;2022-07-06T07:37:03;80652.80;;;18.46
68440;BMP180;55421;51.600;5.718;2022-07-06T07:39:29;81083.40;;;18.52
68440;BMP180;55421;51.600;5.718;2022-07-06T07:41:56;80199.80;;;18.58
68440;BMP180;55421;51.600;5.718;2022-07-06T07:44:22;80778.00;;;18.60
68440;BMP180;55421;51.600;5.718;2022-07-06T07:46:50;80948.60;;;18.60
68440;BMP180;55421;51.600;5.718;2022-07-06T07:49:19;80781.80;;;18.70
68440;BMP180;55421;51.600;5.718;2022-07-06T07:51:48;79325.20;;;18.84
68440;BMP180;55421;51.600;5.718;2022-07-06T07:54:16;80114.20;;;19.00
68440;BMP180;55421;51.600;5.718;2022-07-06T07:56:42;80067.00;;;19.00
68440;BMP180;55421;51.600;5.718;2022-07-06T07:59:09;80525.00;;;19.10
68440;BMP180;55421;51.600;5.718;2022-07-06T08:01:36;81379.60;;;19.20
68440;BMP180;55421;51.600;5.718;2022-07-06T08:04:03;79148.40;;;19.30
68440;BMP180;55421;51.600;5.718;2022-07-06T08:06:30;81426.60;;;19.44
68440;BMP180;55421;51.600;5.718;2022-07-06T08:08:56;81598.00;;;19.60
68440;BMP180;55421;51.600;5.718;2022-07-06T08:11:23;81593.00;;;19.60
68440;BMP180;55421;51.600;5.718;2022-07-06T08:13:49;81596.00;;;19.70
68440;BMP180;55421;51.600;5.718;2022-07-06T08:16:16;82563.00;;;19.80
68440;BMP180;55421;51.600;5.718;2022-07-06T08:18:42;82392.60;;;19.80
68440;BMP180;55421;51.600;5.718;2022-07-06T08:21:09;81422.00;;;19.90
68440;BMP180;55421;51.600;5.718;2022-07-06T08:23:35;81859.20;;;20.10
68440;BMP180;55421;51.600;5.718;2022-07-06T08:26:02;81575.40;;;20.10
68440;BMP180;55421;51.600;5.718;2022-07-06T08:28:29;81969.00;;;20.10
68440;BMP180;55421;51.600;5.718;2022-07-06T08:30:56;81184.40;;;20.20
68440;BMP180;55421;51.600;5.718;2022-07-06T08:33:23;80675.00;;;20.40
68440;BMP180;55421;51.600;5.718;2022-07-06T08:35:49;81352.00;;;20.60
68440;BMP180;55421;51.600;5.718;2022-07-06T08:38:16;82344.60;;;20.70
68440;BMP180;55421;51.600;5.718;2022-07-06T08:40:46;82491.60;;;20.70
68440;BMP180;55421;51.600;5.718;2022-07-06T08:43:13;82431.80;;;20.72
68440;BMP180;55421;51.600;5.718;2022-07-06T08:45:41;81521.60;;;20.90
68440;BMP180;55421;51.600;5.718;2022-07-06T08:48:11;81761.80;;;21.10
68440;BMP180;55421;51.600;5.718;2022-07-06T08:50:38;81995.20;;;21.20
68440;BMP180;55421;51.600;5.718;2022-07-06T08:53:05;82255.20;;;21.10
68440;BMP180;55421;51.600;5.718;2022-07-06T08:55:33;82178.20;;;21.28
68440;BMP180;55421;51.600;5.718;2022-07-06T08:57:59;82924.80;;;21.30
68440;BMP180;55421;51.600;5.718;2022-07-06T09:00:26;81544.40;;;21.08
68440;BMP180;55421;51.600;5.718;2022-07-06T09:02:52;82467.00;;;20.90
68440;BMP180;55421;51.600;5.718;2022-07-06T09:05:24;81726.80;;;21.16
68440;BMP180;55421;51.600;5.718;2022-07-06T09:07:52;82609.00;;;21.48
68440;BMP180;55421;51.600;5.718;2022-07-06T09:10:21;82256.60;;;21.50
68440;BMP180;55421;51.600;5.718;2022-07-06T09:12:48;82590.20;;;21.10
68440;BMP180;55421;51.600;5.718;2022-07-06T09:15:15;82982.20;;;20.80
68440;BMP180;55421;51.600;5.718;2022-07-06T09:17:43;83342.20;;;20.60
68440;BMP180;55421;51.600;5.718;2022-07-06T09:20:12;83008.20;;;20.68
68440;BMP180;55421;51.600;5.718;2022-07-06T09:22:40;83437.80;;;20.90
68440;BMP180;55421;51.600;5.718;2022-07-06T09:25:14;83105.60;;;21.10
68440;BMP180;55421;51.600;5.718;2022-07-06T09:27:47;82768.00;;;21.20
68440;BMP180;55421;51.600;5.718;2022-07-06T09:30:16;83104.60;;;21.18
68440;BMP180;55421;51.600;5.718;2022-07-06T09:32:49;83222.60;;;21.10
68440;BMP180;55421;51.600;5.718;2022-07-06T09:35:29;83775.60;;;21.30
68440;BMP180;55421;51.600;5.718;2022-07-06T09:38:11;84084.40;;;21.50
68440;BMP180;55421;51.600;5.718;2022-07-06T09:40:43;84386.40;;;21.70
68440;BMP180;55421;51.600;5.718;2022-07-06T09:43:22;84299.20;;;21.90
68440;BMP180;55421;51.600;5.718;2022-07-06T09:45:52;84390.40;;;22.00
68440;BMP180;55421;51.600;5.718;2022-07-06T09:48:25;84424.80;;;21.84
68440;BMP180;55421;51.600;5.718;2022-07-06T09:50:56;83818.60;;;21.66
68440;BMP180;55421;51.600;5.718;2022-07-06T09:53:25;84023.20;;;21.78
68440;BMP180;55421;51.600;5.718;2022-07-06T09:55:55;84032.60;;;21.80
68440;BMP180;55421;51.600;5.718;2022-07-06T09:58:24;84930.20;;;21.90
68440;BMP180;55421;51.600;5.718;2022-07-06T10:00:51;84543.60;;;22.00
68440;BMP180;55421;51.600;5.718;2022-07-06T10:03:18;84296.00;;;22.20
68440;BMP180;55421;51.600;5.718;2022-07-06T10:05:46;83875.00;;;22.50
68440;BMP180;55421;51.600;5.718;2022-07-06T10:08:15;83891.60;;;22.62
68440;BMP180;55421;51.600;5.718;2022-07-06T10:10:43;84276.40;;;22.48
68440;BMP180;55421;51.600;5.718;2022-07-06T10:13:14;85724.40;;;22.20
68440;BMP180;55421;51.600;5.718;2022-07-06T10:15:45;84557.80;;;21.90
68440;BMP180;55421;51.600;5.718;2022-07-06T10:18:12;85916.80;;;21.84
68440;BMP180;55421;51.600;5.718;2022-07-06T10:20:39;84328.60;;;21.70
68440;BMP180;55421;51.600;5.718;2022-07-06T10:23:08;84991.60;;;21.60
68440;BMP180;55421;51.600;5.718;2022-07-06T10:25:35;85280.60;;;21.40
68440;BMP180;55421;51.600;5.718;2022-07-06T10:28:02;84699.40;;;21.40
68440;BMP180;55421;51.600;5.718;2022-07-06T10:30:30;85628.80;;;21.50
68440;BMP180;55421;51.600;5.718;2022-07-06T10:32:58;85806.40;;;21.58
68440;BMP180;55421;51.600;5.718;2022-07-06T10:35:25;84383.60;;;21.60
68440;BMP180;55421;51.600;5.718;2022-07-06T10:38:09;85267.60;;;21.70
68440;BMP180;55421;51.600;5.718;2022-07-06T10:40:41;84792.60;;;21.76
68440;BMP180;55421;51.600;5.718;2022-07-06T10:43:37;85850.20;;;21.90
68440;BMP180;55421;51.600;5.718;2022-07-06T10:46:07;85586.80;;;21.90
68440;BMP180;55421;51.600;5.718;2022-07-06T10:48:38;85094.60;;;21.90
68440;BMP180;55421;51.600;5.718;2022-07-06T10:51:06;84738.80;;;22.00
68440;BMP180;55421;51.600;5.718;2022-07-06T10:53:35;84341.40;;;22.00
68440;BMP180;55421;51.600;5.718;2022-07-06T10:56:05;85004.20;;;22.00
68440;BMP180;55421;51.600;5.718;2022-07-06T10:58:48;85408.60;;;21.90
68440;BMP180;55421;51.600;5.718;2022-07-06T11:01:19;85524.60;;;21.80
68440;BMP180;55421;51.600;5.718;2022-07-06T11:04:09;84165.20;;;21.74
68440;BMP180;55421;51.600;5.718;2022-07-06T11:06:38;84371.20;;;21.80
68440;BMP180;55421;51.600;5.718;2022-07-06T11:09:09;84344.00;;;21.80
68440;BMP180;55421;51.600;5.718;2022-07-06T11:14:16;84482.60;;;21.90
68440;BMP180;55421;51.600;5.718;2022-07-06T11:19:20;84199.60;;;22.10
68440;BMP180;55421;51.600;5.718;2022-07-06T11:21:53;83725.40;;;22.00
68440;BMP180;55421;51.600;5.718;2022-07-06T11:26:52;83897.60;;;22.00
68440;BMP180;55421;51.600;5.718;2022-07-06T11:29:22;84640.60;;;22.08
68440;BMP180;55421;51.600;5.718;2022-07-06T11:31:52;84278.60;;;22.00
68440;BMP180;55421;51.600;5.718;2022-07-06T11:34:23;83551.40;;;22.00
68440;BMP180;55421;51.600;5.718;2022-07-06T11:37:04;84497.60;;;22.00
68440;BMP180;55421;51.600;5.718;2022-07-06T11:39:36;84072.60;;;22.00
68440;BMP180;55421;51.600;5.718;2022-07-06T11:42:03;84473.60;;;22.20
68440;BMP180;55421;51.600;5.718;2022-07-06T11:44:31;84339.00;;;22.30
68440;BMP180;55421;51.600;5.718;2022-07-06T11:46:58;84220.00;;;22.20
68440;BMP180;55421;51.600;5.718;2022-07-06T11:49:27;84371.60;;;22.08
68440;BMP180;55421;51.600;5.718;2022-07-06T11:51:54;83804.20;;;22.00
68440;BMP180;55421;51.600;5.718;2022-07-06T11:54:22;84036.60;;;22.14
68440;BMP180;55421;51.600;5.718;2022-07-06T11:56:53;83428.00;;;22.36
68440;BMP180;55421;51.600;5.718;2022-07-06T11:59:23;83458.60;;;22.60
68440;BMP180;55421;51.600;5.718;2022-07-06T12:02:15;83892.40;;;22.80
68440;BMP180;55421;51.600;5.718;2022-07-06T12:04:44;85453.00;;;22.80
68440;BMP180;55421;51.600;5.718;2022-07-06T12:07:15;85513.80;;;22.84
68440;BMP180;55421;51.600;5.718;2022-07-06T12:09:46;85171.00;;;22.90
68440;BMP180;55421;51.600;5.718;2022-07-06T12:12:14;86009.20;;;22.90
68440;BMP180;55421;51.600;5.718;2022-07-06T12:14:42;86233.40;;;23.00
68440;BMP180;55421;51.600;5.718;2022-07-06T12:17:11;85881.60;;;23.00
68440;BMP180;55421;51.600;5.718;2022-07-06T12:19:38;86207.20;;;23.00
68440;BMP180;55421;51.600;5.718;2022-07-06T12:22:06;87101.20;;;23.00
68440;BMP180;55421;51.600;5.718;2022-07-06T12:24:35;86373.80;;;23.00
68440;BMP180;55421;51.600;5.718;2022-07-06T12:27:16;86599.20;;;23.00
68440;BMP180;55421;51.600;5.718;2022-07-06T12:29:44;86827.40;;;22.92
68440;BMP180;55421;51.600;5.718;2022-07-06T12:32:20;86628.00;;;22.98
68440;BMP180;55421;51.600;5.718;2022-07-06T12:35:06;86639.40;;;23.10
68440;BMP180;55421;51.600;5.718;2022-07-06T12:37:33;85997.00;;;23.10
68440;BMP180;55421;51.600;5.718;2022-07-06T12:39:59;85897.00;;;23.20
68440;BMP180;55421;51.600;5.718;2022-07-06T12:42:27;85417.60;;;23.20
68440;BMP180;55421;51.600;5.718;2022-07-06T12:44:54;86054.40;;;23.00
68440;BMP180;55421;51.600;5.718;2022-07-06T12:47:24;85447.20;;;22.78
68440;BMP180;55421;51.600;5.718;2022-07-06T12:50:09;85630.20;;;22.60
68440;BMP180;55421;51.600;5.718;2022-07-06T12:52:38;85923.40;;;22.70
68440;BMP180;55421;51.600;5.718;2022-07-06T12:55:07;85370.00;;;22.80
68440;BMP180;55421;51.600;5.718;2022-07-06T12:57:49;85956.20;;;22.90
68440;BMP180;55421;51.600;5.718;2022-07-06T13:00:17;86221.60;;;22.80
68440;BMP180;55421;51.600;5.718;2022-07-06T13:02:47;86588.20;;;22.70
68440;BMP180;55421;51.600;5.718;2022-07-06T13:05:16;85981.20;;;22.50
68440;BMP180;55421;51.600;5.718;2022-07-06T13:07:47;86818.60;;;22.34
68440;BMP180;55421;51.600;5.718;2022-07-06T13:10:16;86085.20;;;22.30
68440;BMP180;55421;51.600;5.718;2022-07-06T13:12:43;86939.20;;;22.30
68440;BMP180;55421;51.600;5.718;2022-07-06T13:15:10;85771.40;;;22.48
68440;BMP180;55421;51.600;5.718;2022-07-06T13:17:37;85766.00;;;22.70
68440;BMP180;55421;51.600;5.718;2022-07-06T13:20:06;86657.20;;;22.90
68440;BMP180;55421;51.600;5.718;2022-07-06T13:22:34;85273.40;;;22.80
68440;BMP180;55421;51.600;5.718;2022-07-06T13:25:01;85751.60;;;22.70
68440;BMP180;55421;51.600;5.718;2022-07-06T13:27:27;85622.80;;;22.60
68440;BMP180;55421;51.600;5.718;2022-07-06T13:29:54;85517.40;;;22.66
68440;BMP180;55421;51.600;5.718;2022-07-06T13:32:21;85828.80;;;22.80
68440;BMP180;55421;51.600;5.718;2022-07-06T13:34:48;85867.40;;;22.90
68440;BMP180;55421;51.600;5.718;2022-07-06T13:37:14;86338.00;;;23.00
68440;BMP180;55421;51.600;5.718;2022-07-06T13:39:41;87190.80;;;23.10
68440;BMP180;55421;51.600;5.718;2022-07-06T13:42:07;86705.60;;;23.10
68440;BMP180;55421;51.600;5.718;2022-07-06T13:44:36;86685.60;;;23.10
68440;BMP180;55421;51.600;5.718;2022-07-06T13:47:03;86021.00;;;23.00
68440;BMP180;55421;51.600;5.718;2022-07-06T13:49:30;86426.00;;;22.90
68440;BMP180;55421;51.600;5.718;2022-07-06T13:51:56;86336.40;;;22.80
68440;BMP180;55421;51.600;5.718;2022-07-06T13:54:30;86057.80;;;22.90
68440;BMP180;55421;51.600;5.718;2022-07-06T13:56:57;86081.20;;;22.90
68440;BMP180;55421;51.600;5.718;2022-07-06T13:59:23;86038.80;;;22.92
68440;BMP180;55421;51.600;5.718;2022-07-06T14:01:50;86460.00;;;22.90
68440;BMP180;55421;51.600;5.718;2022-07-06T14:04:17;85683.60;;;22.92
68440;BMP180;55421;51.600;5.718;2022-07-06T14:06:43;85405.80;;;23.00
68440;BMP180;55421;51.600;5.718;2022-07-06T14:09:10;85987.00;;;23.00
68440;BMP180;55421;51.600;5.718;2022-07-06T14:11:36;85410.00;;;23.12
68440;BMP180;55421;51.600;5.718;2022-07-06T14:14:03;84690.80;;;23.28
68440;BMP180;55421;51.600;5.718;2022-07-06T14:16:35;85430.60;;;23.30
68440;BMP180;55421;51.600;5.718;2022-07-06T14:19:02;85143.20;;;23.36
68440;BMP180;55421;51.600;5.718;2022-07-06T14:21:29;84964.20;;;23.40